createdAt,value
2023-01-03T00:01:05.908Z,0.5
2023-01-03T00:11:01.326Z,0.4
2023-01-03T00:16:01.279Z,0.2
2023-01-03T00:21:01.551Z,0.2
2023-01-03T00:26:01.366Z,0.0
2023-01-03T00:31:01.515Z,0.0
2023-01-03T00:36:01.270Z,0.0
2023-01-03T00:46:01.597Z,0.1
2023-01-03T00:51:01.275Z,0.1
2023-01-03T00:56:01.384Z,0.1
2023-01-03T01:01:01.430Z,0.1
2023-01-03T01:11:01.427Z,0.1
2023-01-03T01:16:01.648Z,0.1
2023-01-03T01:26:01.346Z,0.1
2023-01-03T01:41:01.422Z,0.0
2023-01-03T01:46:01.443Z,0.3
2023-01-03T01:51:01.281Z,0.4
2023-01-03T01:56:01.284Z,0.5
2023-01-03T02:01:01.485Z,0.5
2023-01-03T02:11:01.401Z,0.2
2023-01-03T02:16:01.523Z,0.2
2023-01-03T02:21:01.427Z,0.1
2023-01-03T02:31:01.498Z,0.5
2023-01-03T02:36:01.269Z,0.5
2023-01-03T02:41:01.544Z,0.4
2023-01-03T02:46:01.563Z,0.4
2023-01-03T02:51:01.293Z,0.3
2023-01-03T03:01:01.436Z,0.1
2023-01-03T03:06:01.413Z,0.0
2023-01-03T03:11:01.248Z,0.2
2023-01-03T03:16:01.515Z,0.2
2023-01-03T03:26:01.447Z,0.2
2023-01-03T03:31:01.492Z,0.2
2023-01-03T03:36:01.284Z,0.0
2023-01-03T03:46:06.670Z,0.0
2023-01-03T03:51:01.302Z,0.1
2023-01-03T03:56:01.273Z,0.4
2023-01-03T04:01:01.329Z,0.4
2023-01-03T04:06:01.462Z,0.4
2023-01-03T04:11:01.259Z,0.4
2023-01-03T04:16:01.633Z,0.3
2023-01-03T04:21:01.456Z,0.0
2023-01-03T04:26:01.487Z,0.2
2023-01-03T04:31:01.360Z,0.2
2023-01-03T04:36:01.297Z,0.4
2023-01-03T04:41:01.260Z,0.4
2023-01-03T04:51:01.539Z,0.2
2023-01-03T04:56:01.366Z,0.4
2023-01-03T05:06:01.277Z,0.4
2023-01-03T05:11:01.604Z,0.4
2023-01-03T05:16:01.519Z,0.6
2023-01-03T05:26:01.312Z,0.3
2023-01-03T05:36:01.479Z,0.2
2023-01-03T05:41:01.278Z,0.3
2023-01-03T05:51:01.264Z,0.6
2023-01-03T05:56:01.473Z,0.7
2023-01-03T06:01:01.342Z,1.0
2023-01-03T06:11:01.533Z,1.3
2023-01-03T06:16:03.792Z,1.4
2023-01-03T06:21:01.280Z,1.9
2023-01-03T06:26:01.270Z,2.1
2023-01-03T06:31:01.461Z,2.1
2023-01-03T06:36:01.520Z,2.6
2023-01-03T06:41:01.333Z,2.6
2023-01-03T06:46:01.519Z,2.2
2023-01-03T06:51:01.318Z,2.1
2023-01-03T06:56:02.789Z,2.2
2023-01-03T07:01:01.425Z,1.8
2023-01-03T07:11:01.349Z,2.2
2023-01-03T07:16:01.557Z,2.3
2023-01-03T07:21:01.350Z,2.4
2023-01-03T07:26:01.340Z,2.7
2023-01-03T07:31:01.504Z,2.9
2023-01-03T07:36:12.396Z,3.1
2023-01-03T07:41:01.361Z,3.2
2023-01-03T07:46:01.524Z,3.4
2023-01-03T07:51:01.342Z,3.0
2023-01-03T07:56:01.376Z,3.5
2023-01-03T08:01:01.258Z,3.7
2023-01-03T08:06:01.275Z,3.8
2023-01-03T08:11:01.269Z,3.6
2023-01-03T08:16:01.654Z,4.4
2023-01-03T08:21:01.279Z,4.2
2023-01-03T08:26:01.330Z,4.2
2023-01-03T08:31:05.506Z,4.4
2023-01-03T08:41:01.329Z,4.8
2023-01-03T08:46:01.259Z,4.4
2023-01-03T08:51:01.455Z,4.2
2023-01-03T08:56:01.307Z,4.2
2023-01-03T09:01:01.404Z,4.0
2023-01-03T09:06:01.280Z,3.8
2023-01-03T09:11:01.432Z,3.7
2023-01-03T09:16:01.586Z,4.1
2023-01-03T09:26:01.353Z,3.7
2023-01-03T09:31:01.565Z,3.5
2023-01-03T09:41:01.345Z,3.8
2023-01-03T09:46:01.294Z,3.6
2023-01-03T09:51:31.306Z,4.0
2023-01-03T09:56:02.765Z,4.4
2023-01-03T10:06:16.650Z,3.2
2023-01-03T10:11:05.420Z,3.0
2023-01-03T10:16:17.289Z,2.8
2023-01-03T10:21:07.012Z,2.4
2023-01-03T10:36:01.437Z,2.6
2023-01-03T10:41:01.324Z,2.7
2023-01-03T10:46:01.588Z,2.8
2023-01-03T10:51:01.289Z,2.6
2023-01-03T10:56:01.417Z,2.6
2023-01-03T11:01:01.474Z,2.8
2023-01-03T11:06:01.564Z,2.7
2023-01-03T11:11:02.581Z,2.3
2023-01-03T11:16:01.449Z,2.3
2023-01-03T11:21:01.348Z,2.4
2023-01-03T11:26:01.272Z,2.2
2023-01-03T11:31:01.268Z,2.0
2023-01-03T12:00:08.027Z,0.4
2023-01-03T12:05:01.802Z,0.6
2023-01-03T12:10:02.427Z,0.7
2023-01-03T12:15:11.369Z,0.8
2023-01-03T12:20:01.482Z,0.8
2023-01-03T12:31:01.603Z,0.8
2023-01-03T12:36:01.282Z,0.6
2023-01-03T12:47:01.536Z,0.2
2023-01-03T13:02:01.946Z,0.0
2023-01-03T13:07:01.471Z,0.1
2023-01-03T13:17:01.272Z,0.1
2023-01-03T13:37:01.477Z,0.0
2023-01-03T13:52:01.271Z,0.0
2023-01-03T13:57:01.398Z,0.0
2023-01-03T14:02:02.027Z,0.0
2023-01-03T14:07:01.284Z,0.2
2023-01-03T14:12:01.252Z,0.4
2023-01-03T14:17:01.420Z,0.8
2023-01-03T14:27:01.293Z,1.8
2023-01-03T14:42:01.447Z,1.5
2023-01-03T14:47:01.488Z,1.3
2023-01-03T14:52:01.335Z,1.0
2023-01-03T14:57:01.849Z,1.2
2023-01-03T15:02:02.195Z,1.4
2023-01-03T15:07:29.579Z,1.7
2023-01-03T15:12:03.997Z,2.1
2023-01-03T15:17:04.353Z,2.2
2023-01-03T15:22:07.267Z,2.6
2023-01-03T15:27:01.265Z,2.8
2023-01-03T15:37:02.163Z,2.8
2023-01-03T15:47:01.360Z,2.7
2023-01-03T15:52:01.306Z,2.6
2023-01-03T15:58:01.399Z,2.8
2023-01-03T16:03:01.872Z,3.5
2023-01-03T16:08:01.332Z,4.4
2023-01-03T16:13:01.697Z,5.6
2023-01-03T16:18:02.702Z,7.9
2023-01-03T16:40:03.583Z,11.2
2023-01-03T16:45:03.691Z,9.4
2023-01-03T16:50:01.687Z,8.9
2023-01-03T16:55:01.521Z,8.5
2023-01-03T17:00:02.596Z,8.6
2023-01-03T17:05:01.382Z,7.9
2023-01-03T17:10:01.395Z,7.6
2023-01-03T17:16:03.157Z,7.4
2023-01-03T17:21:08.430Z,10.0
2023-01-03T17:26:01.256Z,8.6
2023-01-03T17:31:01.652Z,7.7
2023-01-03T17:36:01.538Z,8.2
2023-01-03T17:41:01.581Z,8.4
2023-01-03T17:46:01.510Z,6.6
2023-01-03T17:51:01.287Z,8.4
2023-01-03T17:56:01.417Z,9.4
2023-01-03T18:01:01.525Z,9.8
2023-01-03T18:06:01.360Z,10.4
2023-01-03T18:11:01.747Z,10.9
2023-01-03T18:16:02.970Z,11.1
2023-01-03T18:21:02.106Z,11.5
2023-01-03T18:26:01.275Z,11.8
2023-01-03T18:31:01.756Z,11.8
2023-01-03T18:36:02.034Z,10.9
2023-01-03T18:41:14.639Z,10.4
2023-01-03T18:46:01.784Z,10.5
2023-01-03T18:51:01.270Z,9.9
2023-01-03T18:56:02.158Z,9.5
2023-01-03T19:01:01.562Z,9.5
2023-01-03T19:06:01.337Z,10.2
2023-01-03T19:11:01.259Z,9.6
2023-01-03T19:16:01.681Z,9.8
2023-01-03T19:21:01.400Z,9.6
2023-01-03T19:26:01.261Z,9.4
2023-01-03T19:31:01.686Z,8.5
2023-01-03T19:36:01.513Z,8.8
2023-01-03T19:41:01.308Z,8.2
2023-01-03T19:46:01.553Z,8.5
2023-01-03T19:51:01.382Z,8.8
2023-01-03T19:56:01.428Z,8.8
2023-01-03T20:01:01.268Z,8.6
2023-01-03T20:06:01.284Z,8.8
2023-01-03T20:11:01.344Z,8.6
2023-01-03T20:16:01.878Z,8.3
2023-01-03T20:26:01.649Z,7.7
2023-01-03T20:31:01.617Z,7.9
2023-01-03T20:51:01.539Z,7.8
2023-01-03T20:56:01.335Z,7.2
2023-01-03T21:01:05.928Z,7.4
2023-01-03T21:11:01.399Z,7.1
2023-01-03T21:16:01.654Z,7.2
2023-01-03T21:21:01.280Z,7.5
2023-01-03T21:26:01.365Z,7.4
2023-01-03T21:31:06.021Z,7.4
2023-01-03T21:41:01.353Z,7.2
2023-01-03T21:46:01.549Z,7.3
2023-01-03T21:56:01.563Z,7.4
2023-01-03T22:01:01.596Z,7.6
2023-01-03T22:06:01.282Z,7.4
2023-01-03T22:11:01.280Z,7.2
2023-01-03T22:16:03.849Z,6.4
2023-01-03T22:21:01.444Z,10.8
2023-01-03T22:26:02.203Z,16.2
2023-01-03T22:31:01.395Z,20.1
2023-01-03T22:36:02.140Z,24.3
2023-01-03T22:41:01.331Z,30.6
2023-01-03T22:46:01.552Z,28.9
2023-01-03T22:51:01.359Z,23.7
2023-01-03T22:56:01.355Z,20.0
2023-01-03T23:01:01.445Z,15.4
2023-01-03T23:06:01.352Z,8.8
2023-01-03T23:11:01.277Z,5.6
2023-01-03T23:16:01.370Z,5.0
2023-01-03T23:21:02.023Z,4.6
2023-01-03T23:26:01.288Z,4.6
2023-01-03T23:31:01.514Z,4.9
2023-01-03T23:36:01.465Z,5.1
2023-01-03T23:41:01.383Z,5.1
2023-01-03T23:46:01.596Z,5.1
2023-01-03T23:51:01.284Z,7.1
2023-01-03T23:56:01.348Z,9.2
